Time;durP1;ratioP1;P1;durP2;ratioP2;P2;SDS_P1;SDS_P2;PMS_P1;PMS_P2;Temp;Humidity;BMP_temperature;BMP_pressure;BME280_temperature;BME280_humidity;BME280_pressure;Samples;Min_cycle;Max_cycle;Signal;HPM_P1;HPM_P2
2022/08/21 00:01:22;;;;;;;207.07;199.47;;;14.20;99.90;;;;;;6216892;23;20417;-84
2022/08/21 00:03:50;;;;;;;227.87;219.53;;;14.10;99.90;;;;;;6216136;23;20428;-84
2022/08/21 00:06:17;;;;;;;194.37;187.20;;;14.20;99.90;;;;;;6215655;23;20412;-84
2022/08/21 00:08:44;;;;;;;142.63;136.37;;;14.20;99.90;;;;;;6216089;23;20412;-84
2022/08/21 00:11:11;;;;;;;137.23;131.60;;;14.30;99.90;;;;;;6215857;23;20420;-85
2022/08/21 00:13:39;;;;;;;177.13;170.10;;;14.20;99.90;;;;;;6216106;23;20436;-84
2022/08/21 00:16:05;;;;;;;174.70;167.77;;;14.30;99.90;;;;;;6216219;23;20419;-84
2022/08/21 00:18:32;;;;;;;154.33;148.13;;;14.30;99.90;;;;;;6216521;23;20412;-85
2022/08/21 00:21:00;;;;;;;153.37;147.47;;;14.40;99.90;;;;;;6216346;23;20419;-84
2022/08/21 00:23:27;;;;;;;147.77;141.70;;;14.40;99.90;;;;;;6216362;23;20799;-85
2022/08/21 00:25:54;;;;;;;99.00;94.37;;;14.50;99.90;;;;;;6215542;23;20466;-84
2022/08/21 00:28:21;;;;;;;117.20;112.30;;;14.50;99.90;;;;;;6215428;23;20423;-85
2022/08/21 00:30:47;;;;;;;159.00;152.90;;;14.40;99.90;;;;;;6215327;23;20412;-85
2022/08/21 00:33:16;;;;;;;181.83;174.90;;;14.30;99.90;;;;;;6215484;23;20776;-84
2022/08/21 00:35:44;;;;;;;185.80;178.23;;;14.50;99.90;;;;;;6224666;23;20436;-85
2022/08/21 00:38:12;;;;;;;234.27;225.87;;;14.40;99.90;;;;;;6215544;23;20412;-85
2022/08/21 00:40:43;;;;;;;254.43;245.00;;;14.20;99.90;;;;;;6215188;23;20472;-85
2022/08/21 00:43:12;;;;;;;281.07;270.60;;;14.30;99.90;;;;;;6215345;23;20400;-84
2022/08/21 00:45:39;;;;;;;365.40;351.77;;;14.00;99.90;;;;;;6214782;23;20408;-84
2022/08/21 00:48:07;;;;;;;398.63;381.70;;;13.90;99.90;;;;;;6225019;23;20904;-84
2022/08/21 00:50:39;;;;;;;408.43;391.90;;;13.90;99.90;;;;;;6215251;23;20412;-84
2022/08/21 00:53:11;;;;;;;407.93;391.77;;;13.90;99.90;;;;;;6215078;23;20401;-84
2022/08/21 00:55:39;;;;;;;420.07;402.93;;;13.90;99.90;;;;;;6224614;23;20451;-84
2022/08/21 00:58:09;;;;;;;433.57;416.37;;;13.80;99.90;;;;;;6215058;23;20490;-84
2022/08/21 01:00:39;;;;;;;456.30;437.90;;;13.60;99.90;;;;;;6215459;23;20403;-84
2022/08/21 01:03:10;;;;;;;456.40;437.73;;;13.50;99.90;;;;;;6215205;23;20419;-84
2022/08/21 01:05:37;;;;;;;493.10;472.27;;;13.60;99.90;;;;;;6215290;23;20487;-84
2022/08/21 01:08:04;;;;;;;464.27;444.87;;;13.60;99.90;;;;;;6215987;23;20954;-85
2022/08/21 01:10:32;;;;;;;478.97;458.70;;;13.50;99.90;;;;;;6216593;23;20416;-84
2022/08/21 01:13:00;;;;;;;488.93;468.33;;;13.50;99.90;;;;;;6216588;23;20431;-85
2022/08/21 01:15:32;;;;;;;517.60;495.30;;;13.40;99.90;;;;;;6215032;23;20443;-84
2022/08/21 01:17:59;;;;;;;507.73;485.23;;;13.30;99.90;;;;;;6215627;23;20396;-85
2022/08/21 01:20:27;;;;;;;527.57;504.57;;;13.40;99.90;;;;;;6216228;23;20467;-85
2022/08/21 01:22:55;;;;;;;559.70;534.30;;;13.30;99.90;;;;;;6216905;23;20419;-85
2022/08/21 01:25:22;;;;;;;569.40;543.90;;;13.20;99.90;;;;;;6215617;23;20432;-85
2022/08/21 01:27:49;;;;;;;584.20;557.77;;;13.30;99.90;;;;;;6216464;23;20724;-85
2022/08/21 01:30:20;;;;;;;634.73;605.17;;;13.00;99.90;;;;;;6216113;23;20412;-84
2022/08/21 01:32:48;;;;;;;625.80;596.50;;;13.00;99.90;;;;;;6216258;23;20404;-84
2022/08/21 01:35:17;;;;;;;579.60;553.33;;;13.00;99.90;;;;;;6215049;23;20451;-84
2022/08/21 01:37:44;;;;;;;655.80;623.83;;;13.00;99.90;;;;;;6215233;23;20950;-84
2022/08/21 01:40:15;;;;;;;669.70;637.30;;;13.00;99.90;;;;;;6215262;23;20419;-84
2022/08/21 01:42:43;;;;;;;681.77;647.30;;;12.90;99.90;;;;;;6215952;23;20447;-84
2022/08/21 01:45:10;;;;;;;675.70;642.17;;;12.90;99.90;;;;;;6214848;23;20432;-84
2022/08/21 01:47:37;;;;;;;694.17;658.83;;;13.00;99.90;;;;;;6215866;23;20748;-84
2022/08/21 01:50:06;;;;;;;728.57;690.07;;;12.90;99.90;;;;;;6215513;23;20412;-84
2022/08/21 01:52:33;;;;;;;695.53;660.23;;;12.90;99.90;;;;;;6215950;23;20416;-85
2022/08/21 01:55:00;;;;;;;756.47;715.63;;;12.90;99.90;;;;;;6215447;23;20481;-84
2022/08/21 01:57:28;;;;;;;736.17;695.53;;;12.90;99.90;;;;;;6216047;23;20412;-85
2022/08/21 01:59:55;;;;;;;753.57;712.67;;;12.90;99.90;;;;;;6215954;23;20426;-85
2022/08/21 02:02:22;;;;;;;759.97;718.43;;;12.80;99.90;;;;;;6216349;23;20416;-85
2022/08/21 02:04:48;;;;;;;738.90;699.40;;;12.80;99.90;;;;;;6216017;23;20428;-84
2022/08/21 02:07:15;;;;;;;749.17;707.83;;;12.80;99.90;;;;;;6215965;23;20416;-84
2022/08/21 02:09:42;;;;;;;782.70;737.60;;;12.70;99.90;;;;;;6216352;23;20422;-84
2022/08/21 02:12:09;;;;;;;816.63;768.33;;;12.60;99.90;;;;;;6215643;23;20834;-85
2022/08/21 02:14:38;;;;;;;833.23;782.63;;;12.50;99.90;;;;;;6215660;23;20769;-84
2022/08/21 02:17:05;;;;;;;823.10;774.53;;;12.60;99.90;;;;;;6216308;23;20761;-85
2022/08/21 02:19:32;;;;;;;817.97;769.57;;;12.60;99.90;;;;;;6215997;23;20486;-84
2022/08/21 02:21:59;;;;;;;807.77;760.20;;;12.60;99.90;;;;;;6216042;23;20458;-84
2022/08/21 02:24:25;;;;;;;800.77;754.00;;;12.60;99.90;;;;;;6215562;23;20432;-84
2022/08/21 02:26:52;;;;;;;860.83;809.63;;;12.50;99.90;;;;;;6216608;23;20419;-84
2022/08/21 02:29:19;;;;;;;843.87;793.77;;;12.70;99.90;;;;;;6216647;23;20419;-84
2022/08/21 02:31:47;;;;;;;817.20;769.80;;;12.70;99.90;;;;;;6217275;23;20415;-84
2022/08/21 02:34:14;;;;;;;763.13;720.53;;;12.60;99.90;;;;;;6217178;23;20446;-84
2022/08/21 02:36:40;;;;;;;817.73;770.33;;;12.60;99.90;;;;;;6216952;23;20427;-84
2022/08/21 02:39:07;;;;;;;784.67;740.77;;;12.60;99.90;;;;;;6217571;23;20419;-85
2022/08/21 02:41:34;;;;;;;783.27;738.97;;;12.50;99.90;;;;;;6217506;23;20412;-84
2022/08/21 02:44:00;;;;;;;827.70;779.37;;;12.50;99.90;;;;;;6217745;23;20770;-84
2022/08/21 02:46:28;;;;;;;798.23;753.13;;;12.50;99.90;;;;;;6217854;23;20419;-84
2022/08/21 02:48:56;;;;;;;786.43;742.90;;;12.50;99.90;;;;;;6217814;23;20506;-85
2022/08/21 02:51:23;;;;;;;767.37;726.13;;;12.50;99.90;;;;;;6217224;23;20412;-84
2022/08/21 02:53:50;;;;;;;728.63;692.37;;;12.50;99.90;;;;;;6217782;23;20506;-84
2022/08/21 02:56:20;;;;;;;727.60;690.73;;;12.50;99.90;;;;;;6217068;23;20436;-84
2022/08/21 02:58:49;;;;;;;820.50;773.60;;;12.30;99.90;;;;;;6217737;23;20412;-84
2022/08/21 03:01:16;;;;;;;793.17;749.27;;;12.30;99.90;;;;;;6216959;23;20419;-83
2022/08/21 03:03:46;;;;;;;846.13;795.13;;;12.20;99.90;;;;;;6227378;23;20756;-84
2022/08/21 03:06:16;;;;;;;929.00;869.87;;;12.20;99.90;;;;;;6216984;23;20742;-84
2022/08/21 03:08:44;;;;;;;947.97;886.23;;;12.20;99.90;;;;;;6217789;23;20407;-84
2022/08/21 03:11:11;;;;;;;941.57;878.87;;;12.20;99.90;;;;;;6217550;23;20423;-84
2022/08/21 03:13:39;;;;;;;950.07;886.97;;;12.30;99.90;;;;;;6217127;23;20438;-84
2022/08/21 03:16:06;;;;;;;946.40;885.87;;;12.30;99.90;;;;;;6216958;23;20490;-84
2022/08/21 03:18:33;;;;;;;929.03;872.03;;;12.20;99.90;;;;;;6217169;23;20416;-84
2022/08/21 03:21:00;;;;;;;893.57;840.73;;;12.20;99.90;;;;;;6217342;23;20416;-84
2022/08/21 03:23:30;;;;;;;936.17;876.93;;;12.20;99.90;;;;;;6217211;23;20431;-84
2022/08/21 03:25:57;;;;;;;939.90;878.23;;;12.10;99.90;;;;;;6216487;23;20396;-84
2022/08/21 03:28:25;;;;;;;915.90;860.50;;;12.30;99.90;;;;;;6216827;23;20419;-84
2022/08/21 03:30:52;;;;;;;863.73;814.47;;;12.10;99.90;;;;;;6216906;23;20413;-84
2022/08/21 03:33:20;;;;;;;772.63;733.13;;;12.30;99.90;;;;;;6216275;23;20424;-83
2022/08/21 03:35:58;;;;;;;840.73;794.27;;;12.10;99.90;;;;;;6216995;23;20443;-84
2022/08/21 03:38:25;;;;;;;936.80;878.30;;;12.10;99.90;;;;;;6216907;23;20400;-84
2022/08/21 03:40:53;;;;;;;922.10;866.20;;;12.10;99.90;;;;;;6216997;23;20438;-83
2022/08/21 03:43:20;;;;;;;940.17;878.60;;;12.20;99.90;;;;;;6216167;23;20412;-84
2022/08/21 03:45:47;;;;;;;917.67;862.07;;;12.20;99.90;;;;;;6216530;23;20415;-84
2022/08/21 03:48:14;;;;;;;854.27;805.27;;;12.30;99.90;;;;;;6216423;23;20419;-84
2022/08/21 03:50:43;;;;;;;846.00;798.53;;;12.20;99.90;;;;;;6215584;23;20412;-84
2022/08/21 03:53:11;;;;;;;839.77;792.53;;;12.10;99.90;;;;;;6215684;23;20419;-84
2022/08/21 03:55:38;;;;;;;920.57;864.00;;;12.20;99.90;;;;;;6215523;23;20435;-84
2022/08/21 03:58:06;;;;;;;937.27;875.13;;;12.30;99.90;;;;;;6216500;23;20423;-83
2022/08/21 04:00:34;;;;;;;938.37;871.97;;;12.30;99.90;;;;;;6215740;23;20412;-84
2022/08/21 04:03:00;;;;;;;929.07;864.17;;;12.50;99.90;;;;;;6215707;23;20416;-84
2022/08/21 04:05:30;;;;;;;928.07;869.40;;;12.60;99.90;;;;;;6225632;23;20431;-84
2022/08/21 04:07:58;;;;;;;924.53;866.33;;;12.60;99.90;;;;;;6216474;23;20751;-84
2022/08/21 04:10:26;;;;;;;897.87;844.47;;;12.50;99.90;;;;;;6216200;23;20727;-83
2022/08/21 04:12:53;;;;;;;920.90;865.60;;;12.50;99.90;;;;;;6217009;23;20416;-83
2022/08/21 04:15:23;;;;;;;932.90;874.40;;;12.30;99.90;;;;;;6216645;23;20490;-84
2022/08/21 04:17:50;;;;;;;935.77;873.77;;;12.30;99.90;;;;;;6216988;23;20409;-84
2022/08/21 04:20:18;;;;;;;912.73;853.73;;;12.30;99.90;;;;;;6216684;23;20416;-84
2022/08/21 04:22:45;;;;;;;897.90;843.37;;;12.30;99.90;;;;;;6216847;23;20911;-83
2022/08/21 04:29:00;;;;;;;899.40;843.90;;;12.40;99.90;;;;;;6190919;23;20419;-86
2022/08/21 04:32:05;;;;;;;899.10;843.53;;;12.20;99.90;;;;;;6231349;23;20411;-85
2022/08/21 04:35:03;;;;;;;896.03;840.33;;;12.20;99.90;;;;;;6230417;23;20432;-85
2022/08/21 04:37:57;;;;;;;912.23;855.13;;;12.10;99.90;;;;;;6229925;23;20423;-86
2022/08/21 04:46:48;;;;;;;845.67;796.77;;;12.20;99.90;;;;;;6220930;23;20462;-85
2022/08/21 04:56:09;;;;;;;818.10;770.90;;;12.10;99.90;;;;;;6196128;23;20440;-86
2022/08/21 04:59:29;;;;;;;806.60;761.60;;;12.10;99.90;;;;;;6230751;23;20423;-86
2022/08/21 05:01:57;;;;;;;817.03;770.50;;;11.90;99.90;;;;;;6233433;23;20462;-84
2022/08/21 05:04:29;;;;;;;808.60;761.90;;;12.20;99.90;;;;;;6223287;23;20443;-85
2022/08/21 05:06:58;;;;;;;848.87;799.30;;;12.20;99.90;;;;;;6225807;23;20396;-84
2022/08/21 05:09:27;;;;;;;833.27;784.27;;;12.30;99.90;;;;;;6224750;23;20418;-84
2022/08/21 05:11:55;;;;;;;819.63;772.00;;;12.50;99.90;;;;;;6222023;23;20410;-81
2022/08/21 05:14:21;;;;;;;815.43;767.67;;;12.60;99.90;;;;;;6223051;23;20428;-80
2022/08/21 05:16:48;;;;;;;745.37;706.03;;;12.70;99.90;;;;;;6223013;23;20439;-81
2022/08/21 05:19:15;;;;;;;728.67;690.03;;;12.70;99.90;;;;;;6223459;23;20412;-80
2022/08/21 05:21:45;;;;;;;676.60;642.70;;;12.80;99.90;;;;;;6223732;23;20416;-81
2022/08/21 05:24:12;;;;;;;622.20;592.30;;;12.80;99.90;;;;;;6221476;23;20432;-81
2022/08/21 05:26:39;;;;;;;634.80;604.67;;;12.90;99.90;;;;;;6221148;23;20466;-81
2022/08/21 05:29:06;;;;;;;523.40;500.20;;;13.10;99.90;;;;;;6220180;23;20439;-81
2022/08/21 05:31:33;;;;;;;340.17;325.97;;;13.50;99.90;;;;;;6220980;23;20770;-81
2022/08/21 05:34:00;;;;;;;151.00;144.53;;;13.80;99.90;;;;;;6219901;23;20428;-82
2022/08/21 05:36:27;;;;;;;26.33;24.33;;;14.00;99.90;;;;;;6219528;23;20443;-85
2022/08/21 05:38:55;;;;;;;11.20;8.90;;;14.40;99.90;;;;;;6218749;23;20910;-84
2022/08/21 05:41:22;;;;;;;12.87;6.80;;;14.80;99.90;;;;;;6219253;23;20420;-85
2022/08/21 05:43:49;;;;;;;9.73;6.87;;;15.20;99.90;;;;;;6219871;23;20433;-86
2022/08/21 05:46:16;;;;;;;12.53;5.80;;;15.40;99.90;;;;;;6220874;23;20915;-83
2022/08/21 05:48:43;;;;;;;13.60;6.17;;;15.60;98.70;;;;;;6220965;23;20745;-83
2022/08/21 05:51:12;;;;;;;11.77;6.23;;;15.90;96.30;;;;;;6219064;23;20417;-84
2022/08/21 05:58:03;;;;;;;8.67;5.00;;;16.50;92.40;;;;;;6029128;23;20449;-86
2022/08/21 06:01:10;;;;;;;;;;;;;;;;;;;;;
2022/08/21 06:04:01;;;;;;;11.43;5.57;;;16.70;89.50;;;;;;6211282;23;20438;-86
2022/08/21 06:06:38;;;;;;;12.10;5.20;;;16.60;86.40;;;;;;6230471;23;20435;-86
2022/08/21 06:09:06;;;;;;;10.10;5.30;;;16.70;87.70;;;;;;6232837;23;20385;-87
2022/08/21 06:11:33;;;;;;;12.80;6.40;;;16.70;87.10;;;;;;6220509;23;20446;-83
2022/08/21 06:14:01;;;;;;;11.93;5.70;;;16.50;86.50;;;;;;6226192;23;20433;-84
2022/08/21 06:16:28;;;;;;;12.50;4.77;;;16.50;86.60;;;;;;6227815;23;20445;-83
2022/08/21 06:18:55;;;;;;;8.03;5.00;;;16.40;86.50;;;;;;6228490;23;20414;-84
2022/08/21 06:21:22;;;;;;;15.53;5.10;;;16.50;87.50;;;;;;6230589;23;20419;-83
2022/08/21 06:23:48;;;;;;;15.93;5.20;;;16.40;87.20;;;;;;6228301;23;20439;-84
2022/08/21 06:26:24;;;;;;;14.80;5.80;;;16.50;87.10;;;;;;6230685;23;20417;-84
2022/08/21 06:28:51;;;;;;;7.93;4.43;;;16.50;88.20;;;;;;6224610;23;20744;-85
2022/08/21 06:31:26;;;;;;;9.97;4.63;;;16.60;86.60;;;;;;6223236;23;20417;-82
2022/08/21 06:33:57;;;;;;;9.80;4.10;;;16.70;87.70;;;;;;6221464;23;20435;-82
2022/08/21 06:36:41;;;;;;;10.80;4.20;;;16.60;84.20;;;;;;6233632;23;20460;-84
2022/08/21 06:39:27;;;;;;;8.10;3.30;;;16.70;85.20;;;;;;6221701;23;20419;-84
2022/08/21 06:41:55;;;;;;;9.97;3.60;;;16.80;83.20;;;;;;6177002;23;20417;-84
2022/08/21 06:44:24;;;;;;;9.00;3.80;;;16.90;82.60;;;;;;6230170;23;20439;-83
2022/08/21 06:46:54;;;;;;;8.90;3.77;;;17.00;81.00;;;;;;6220534;23;20448;-84
2022/08/21 06:49:28;;;;;;;14.50;4.30;;;17.00;80.90;;;;;;6233042;23;20726;-84
2022/08/21 06:52:02;;;;;;;16.43;4.10;;;17.10;80.80;;;;;;6196255;23;20419;-84
2022/08/21 06:54:30;;;;;;;8.93;2.93;;;17.30;79.40;;;;;;6234209;23;20506;-84
2022/08/21 06:57:00;;;;;;;11.10;4.03;;;17.40;78.80;;;;;;6222132;23;20405;-84
2022/08/21 06:59:27;;;;;;;7.80;3.53;;;17.50;77.00;;;;;;6232936;23;20897;-84
2022/08/21 07:01:56;;;;;;;11.90;4.00;;;17.50;74.70;;;;;;6234615;23;20913;-84
2022/08/21 07:04:36;;;;;;;10.37;4.13;;;17.60;76.00;;;;;;6233843;23;20803;-84
2022/08/21 07:07:03;;;;;;;12.17;4.20;;;17.60;75.50;;;;;;6232891;23;20488;-82
2022/08/21 07:09:31;;;;;;;14.33;4.50;;;17.70;75.90;;;;;;6221173;23;20521;-84
2022/08/21 07:11:58;;;;;;;9.53;4.10;;;17.80;74.30;;;;;;6231232;23;21064;-84
2022/08/21 07:14:25;;;;;;;13.60;3.60;;;17.90;74.40;;;;;;6231373;23;20452;-85
2022/08/21 07:16:52;;;;;;;7.30;3.33;;;18.00;74.60;;;;;;6230445;23;21043;-85
2022/08/21 07:19:20;;;;;;;8.83;3.70;;;18.10;73.20;;;;;;6221332;23;20412;-85
2022/08/21 07:21:47;;;;;;;9.20;2.93;;;18.20;70.80;;;;;;6221542;23;20411;-85
2022/08/21 07:24:14;;;;;;;14.67;3.80;;;18.30;68.50;;;;;;6220981;23;21130;-85
2022/08/21 07:26:41;;;;;;;11.77;3.73;;;18.30;68.50;;;;;;6221917;23;20432;-86
2022/08/21 07:29:11;;;;;;;11.27;3.93;;;18.30;68.50;;;;;;6232480;23;20908;-85
2022/08/21 07:31:38;;;;;;;11.63;3.27;;;18.50;68.70;;;;;;6231713;23;20416;-87
2022/08/21 07:34:05;;;;;;;5.60;2.70;;;18.50;65.60;;;;;;6227581;23;20433;-85
2022/08/21 07:36:33;;;;;;;8.20;2.83;;;18.70;69.50;;;;;;6220869;23;20501;-86
2022/08/21 07:39:00;;;;;;;12.10;3.43;;;18.80;69.00;;;;;;6232762;23;20442;-86
2022/08/21 07:41:29;;;;;;;8.90;3.07;;;18.90;68.70;;;;;;6220887;23;20409;-85
2022/08/21 07:43:57;;;;;;;9.73;2.60;;;19.10;64.80;;;;;;6231859;23;20433;-86
2022/08/21 07:46:30;;;;;;;7.30;2.27;;;19.10;62.00;;;;;;6222412;23;20447;-86
2022/08/21 07:48:57;;;;;;;7.10;2.47;;;19.20;61.10;;;;;;6230155;23;20437;-86
2022/08/21 07:51:29;;;;;;;11.13;2.90;;;19.50;61.60;;;;;;6232355;23;20411;-87
2022/08/21 07:53:59;;;;;;;8.57;2.43;;;19.50;60.30;;;;;;6234051;23;20429;-86
2022/08/21 07:56:28;;;;;;;7.10;1.97;;;19.60;57.70;;;;;;6233601;23;20419;-85
2022/08/21 07:58:57;;;;;;;6.23;1.73;;;20.00;54.60;;;;;;6231607;23;20439;-86
2022/08/21 08:01:24;;;;;;;4.70;1.73;;;20.30;54.60;;;;;;6234226;23;20438;-85
2022/08/21 08:04:02;;;;;;;6.73;1.70;;;20.60;52.30;;;;;;6234075;23;20457;-87
2022/08/21 08:06:30;;;;;;;8.27;1.90;;;20.90;46.30;;;;;;6234352;23;20439;-87
2022/08/21 08:08:58;;;;;;;6.73;1.70;;;21.50;47.40;;;;;;6234148;23;20484;-86
2022/08/21 08:11:25;;;;;;;7.13;2.40;;;21.80;44.10;;;;;;6225794;23;20501;-86
2022/08/21 08:13:53;;;;;;;7.53;2.17;;;22.20;44.20;;;;;;6226430;23;20435;-87
2022/08/21 08:16:20;;;;;;;8.57;1.63;;;22.60;39.60;;;;;;6222778;23;20448;-86
2022/08/21 08:18:47;;;;;;;7.40;2.17;;;22.60;37.80;;;;;;6224693;23;21148;-84
2022/08/21 08:21:15;;;;;;;9.93;2.10;;;23.00;35.10;;;;;;6220646;23;20415;-86
2022/08/21 08:23:43;;;;;;;7.70;2.90;;;23.30;31.30;;;;;;6232584;23;20985;-86
2022/08/21 08:26:12;;;;;;;5.37;1.57;;;23.00;30.30;;;;;;6217739;23;20435;-87
2022/08/21 08:28:44;;;;;;;9.00;1.80;;;23.10;32.00;;;;;;6218734;23;20419;-86
2022/08/21 08:31:11;;;;;;;11.47;2.27;;;23.70;28.50;;;;;;6219769;23;20402;-87
2022/08/21 08:33:40;;;;;;;6.10;1.47;;;24.00;27.40;;;;;;6219973;23;20459;-87
2022/08/21 08:36:19;;;;;;;6.57;1.73;;;24.30;25.30;;;;;;6229302;23;20423;-87
2022/08/21 08:38:59;;;;;;;7.87;2.23;;;24.40;24.10;;;;;;6219144;23;20398;-89
2022/08/21 08:41:27;;;;;;;6.33;1.30;;;24.50;25.00;;;;;;6230711;23;20411;-86
2022/08/21 08:43:58;;;;;;;4.97;1.23;;;24.50;22.90;;;;;;6219644;23;20768;-87
2022/08/21 08:46:32;;;;;;;7.60;1.60;;;24.50;23.60;;;;;;6229791;23;20424;-88
2022/08/21 08:49:30;;;;;;;7.37;1.60;;;24.90;23.20;;;;;;6222240;23;20393;-87
2022/08/21 08:52:02;;;;;;;6.10;1.47;;;25.10;21.70;;;;;;6215905;23;20728;-86
2022/08/21 08:54:34;;;;;;;6.90;1.97;;;25.30;20.50;;;;;;6222760;23;20434;-87
2022/08/21 08:57:05;;;;;;;7.90;2.37;;;25.80;19.70;;;;;;6224095;23;20399;-88
2022/08/21 08:59:38;;;;;;;6.77;1.20;;;25.30;19.10;;;;;;6224808;23;20437;-87
2022/08/21 09:02:34;;;;;;;7.10;2.07;;;25.50;18.90;;;;;;6224429;23;20407;-87
2022/08/21 09:05:12;;;;;;;6.00;1.37;;;25.50;17.40;;;;;;6124934;23;20458;-87
2022/08/21 09:08:16;;;;;;;8.00;2.10;;;25.30;17.80;;;;;;6222682;23;20498;-87
2022/08/21 09:10:55;;;;;;;8.37;3.30;;;25.60;20.40;;;;;;6199704;23;20415;-86
2022/08/21 09:13:57;;;;;;;7.57;1.70;;;24.90;18.60;;;;;;6220446;23;20400;-85
2022/08/21 09:16:32;;;;;;;5.90;1.53;;;24.70;19.10;;;;;;6219918;23;20411;-86
2022/08/21 09:19:43;;;;;;;;;;;;;;;;;;;;;
2022/08/21 09:22:50;;;;;;;5.73;1.10;;;25.40;16.00;;;;;;6199188;23;20443;-87
2022/08/21 09:25:24;;;;;;;6.87;1.50;;;26.20;17.20;;;;;;6207583;23;20466;-89
2022/08/21 09:27:59;;;;;;;5.53;1.40;;;26.10;13.80;;;;;;6220698;23;20399;-87
2022/08/21 09:30:38;;;;;;;6.70;2.13;;;26.90;12.70;;;;;;6220991;23;20478;-86
2022/08/21 09:33:17;;;;;;;8.57;1.50;;;27.00;11.90;;;;;;6230255;23;20428;-85
2022/08/21 09:35:57;;;;;;;6.50;1.67;;;26.80;10.90;;;;;;6228780;23;20922;-86
2022/08/21 09:39:04;;;;;;;;;;;;;;;;;;;;;
2022/08/21 09:41:48;;;;;;;7.47;1.93;;;27.60;9.60;;;;;;6219978;23;20416;-85
2022/08/21 09:44:27;;;;;;;6.23;1.37;;;27.80;6.30;;;;;;6221815;23;20438;-85
2022/08/21 09:46:53;;;;;;;5.90;1.60;;;27.40;7.00;;;;;;6223280;23;20388;-87
2022/08/21 09:49:29;;;;;;;10.50;2.00;;;27.60;8.30;;;;;;6224387;23;20408;-87
2022/08/21 09:51:58;;;;;;;5.03;1.10;;;27.60;7.70;;;;;;6221821;23;20404;-87
2022/08/21 09:54:28;;;;;;;5.63;1.33;;;27.60;6.60;;;;;;6222633;23;20438;-87
2022/08/21 09:59:43;;;;;;;5.70;1.47;;;27.20;8.00;;;;;;6232463;23;20778;-87
2022/08/21 10:02:29;;;;;;;5.90;1.57;;;27.60;7.70;;;;;;6221072;23;20956;-87
2022/08/21 10:04:58;;;;;;;6.50;1.37;;;27.60;7.70;;;;;;6222650;23;20952;-86
2022/08/21 10:07:28;;;;;;;5.30;1.33;;;27.70;6.00;;;;;;6223850;23;20440;-87
2022/08/21 10:10:04;;;;;;;4.80;1.40;;;28.10;4.20;;;;;;6233298;23;20404;-87
2022/08/21 10:12:39;;;;;;;9.03;2.20;;;28.50;5.30;;;;;;6222726;23;20382;-87
2022/08/21 10:15:14;;;;;;;6.20;1.40;;;28.10;3.40;;;;;;6233379;23;20423;-86
2022/08/21 10:17:50;;;;;;;8.23;1.80;;;28.60;2.70;;;;;;6223378;23;20420;-87
2022/08/21 10:20:23;;;;;;;9.77;1.60;;;28.90;1.00;;;;;;6225376;23;20423;-87
2022/08/21 10:23:12;;;;;;;6.33;1.63;;;29.30;1.00;;;;;;6222788;23;20408;-87
2022/08/21 10:25:44;;;;;;;8.20;1.80;;;29.20;1.00;;;;;;6224436;23;20396;-86
2022/08/21 10:28:17;;;;;;;7.17;1.70;;;28.70;1.00;;;;;;6223327;23;20388;-87
2022/08/21 10:30:49;;;;;;;6.63;2.20;;;28.50;1.00;;;;;;6223934;23;20395;-85
2022/08/21 10:33:29;;;;;;;11.00;3.27;;;28.20;1.00;;;;;;6223021;23;20402;-89
2022/08/21 10:36:06;;;;;;;14.63;2.40;;;27.90;1.90;;;;;;6223191;23;20427;-86
2022/08/21 10:39:06;;;;;;;11.67;1.60;;;27.90;1.00;;;;;;6221962;23;20463;-87
2022/08/21 10:41:53;;;;;;;6.20;2.00;;;27.50;1.00;;;;;;6191532;23;20498;-89
2022/08/21 10:44:30;;;;;;;4.80;1.43;;;28.00;1.30;;;;;;6232153;23;20522;-87
2022/08/21 10:47:05;;;;;;;5.90;1.70;;;28.00;1.00;;;;;;6233355;23;20413;-88
2022/08/21 10:49:40;;;;;;;5.97;1.60;;;28.60;1.00;;;;;;6223690;23;20396;-85
2022/08/21 10:52:27;;;;;;;4.60;1.17;;;28.90;1.00;;;;;;6222292;23;20457;-85
2022/08/21 10:55:01;;;;;;;5.70;1.40;;;28.80;1.00;;;;;;6222535;23;20514;-87
2022/08/21 10:57:35;;;;;;;8.23;1.60;;;29.10;1.00;;;;;;6223357;23;20506;-87
2022/08/21 11:00:08;;;;;;;5.00;1.40;;;29.70;1.00;;;;;;6224836;23;20395;-87
2022/08/21 11:02:41;;;;;;;7.10;1.63;;;29.40;1.00;;;;;;6223105;23;20404;-87
2022/08/21 11:05:13;;;;;;;6.37;1.90;;;29.30;1.00;;;;;;6221956;23;20436;-85
2022/08/21 11:07:49;;;;;;;8.67;1.70;;;28.60;1.00;;;;;;6222955;23;20863;-89
2022/08/21 11:10:22;;;;;;;7.70;1.80;;;29.10;1.00;;;;;;6221569;23;20804;-87
2022/08/21 11:12:54;;;;;;;7.03;1.37;;;29.00;1.00;;;;;;6233120;23;20415;-87
2022/08/21 11:15:34;;;;;;;9.60;1.40;;;28.60;1.00;;;;;;6220211;23;20424;-88
2022/08/21 11:18:12;;;;;;;7.87;1.73;;;28.60;1.00;;;;;;6220994;23;20541;-86
2022/08/21 11:20:44;;;;;;;6.87;1.47;;;28.10;1.00;;;;;;6231294;23;20408;-85
2022/08/21 11:23:21;;;;;;;6.73;1.40;;;28.50;1.00;;;;;;6221438;23;20754;-87
2022/08/21 11:25:52;;;;;;;6.13;1.20;;;29.30;1.00;;;;;;6221465;23;20482;-86
2022/08/21 11:28:25;;;;;;;5.73;1.10;;;29.40;1.00;;;;;;6223550;23;20392;-87
2022/08/21 11:31:01;;;;;;;6.27;1.40;;;29.60;1.00;;;;;;6221318;23;20475;-85
2022/08/21 11:33:43;;;;;;;5.70;1.50;;;29.60;1.00;;;;;;6223009;23;20970;-86
2022/08/21 11:36:19;;;;;;;7.40;1.63;;;29.70;1.00;;;;;;6222974;23;20434;-87
2022/08/21 11:38:54;;;;;;;11.40;2.00;;;29.70;1.00;;;;;;6221909;23;20419;-87
2022/08/21 11:41:29;;;;;;;5.40;1.53;;;30.20;1.00;;;;;;6223813;23;20402;-86
2022/08/21 11:44:04;;;;;;;6.43;1.67;;;31.20;1.00;;;;;;6221663;23;20435;-86
2022/08/21 11:46:40;;;;;;;6.80;1.93;;;30.20;1.00;;;;;;6221985;23;20406;-87
2022/08/21 11:52:56;;;;;;;8.40;1.77;;;30.10;1.00;;;;;;6231810;23;20393;-86
2022/08/21 11:55:56;;;;;;;7.30;1.40;;;29.90;1.00;;;;;;6219804;23;20438;-86
2022/08/21 11:58:33;;;;;;;8.17;1.83;;;29.80;1.00;;;;;;6229287;23;20439;-85
2022/08/21 12:01:05;;;;;;;8.07;2.13;;;29.00;1.00;;;;;;6232403;23;20443;-87
2022/08/21 12:03:35;;;;;;;10.67;2.10;;;29.10;1.00;;;;;;6222534;23;20432;-88
2022/08/21 12:06:05;;;;;;;13.50;1.70;;;29.50;1.00;;;;;;6230789;23;20410;-86
2022/08/21 12:08:35;;;;;;;9.37;1.83;;;29.50;1.00;;;;;;6220826;23;20725;-87
2022/08/21 12:11:07;;;;;;;5.17;1.60;;;30.00;1.00;;;;;;6222958;23;20418;-85
2022/08/21 12:13:36;;;;;;;5.03;1.57;;;30.00;1.00;;;;;;6217718;23;20406;-87
2022/08/21 12:16:11;;;;;;;6.60;1.43;;;29.20;1.00;;;;;;6220669;23;20709;-86
2022/08/21 12:18:38;;;;;;;5.57;2.10;;;29.50;1.00;;;;;;6229606;23;20766;-86
2022/08/21 12:21:20;;;;;;;8.40;2.37;;;29.50;1.00;;;;;;6218851;23;20419;-85
2022/08/21 12:23:49;;;;;;;6.50;1.60;;;29.20;1.00;;;;;;6221158;23;20438;-87
2022/08/21 12:26:26;;;;;;;6.37;1.67;;;29.80;1.00;;;;;;6221654;23;20408;-85
2022/08/21 12:29:12;;;;;;;7.47;1.70;;;30.00;1.00;;;;;;6222300;23;20399;-84
2022/08/21 12:31:53;;;;;;;8.40;1.37;;;30.10;1.00;;;;;;6220205;23;20431;-83
2022/08/21 12:34:22;;;;;;;8.27;1.60;;;29.70;1.00;;;;;;6220315;23;20432;-83
2022/08/21 12:36:55;;;;;;;10.80;2.10;;;29.70;1.00;;;;;;6221755;23;20391;-85
2022/08/21 12:39:27;;;;;;;11.20;1.97;;;29.60;1.00;;;;;;6223653;23;20444;-83
2022/08/21 12:42:02;;;;;;;8.60;1.93;;;31.10;1.00;;;;;;6232948;23;20470;-84
2022/08/21 12:44:36;;;;;;;6.60;1.40;;;31.20;1.00;;;;;;6232749;23;20506;-84
2022/08/21 12:47:06;;;;;;;6.10;1.83;;;31.50;1.00;;;;;;6221191;23;20849;-83
2022/08/21 12:49:36;;;;;;;6.07;1.67;;;30.50;1.00;;;;;;6218531;23;20914;-84
2022/08/21 12:52:10;;;;;;;6.80;1.93;;;30.10;1.00;;;;;;6222629;23;20408;-83
2022/08/21 12:54:41;;;;;;;6.87;1.40;;;30.40;1.00;;;;;;6224486;23;20432;-84
2022/08/21 12:57:21;;;;;;;8.47;1.23;;;31.70;1.00;;;;;;6224434;23;20953;-85
2022/08/21 12:59:53;;;;;;;4.90;1.20;;;32.00;1.00;;;;;;6234543;23;20412;-84
2022/08/21 13:02:24;;;;;;;6.00;1.53;;;32.80;1.00;;;;;;6223291;23;20460;-87
2022/08/21 13:04:52;;;;;;;5.10;1.20;;;32.30;1.00;;;;;;6221625;23;20446;-84
2022/08/21 13:07:26;;;;;;;7.07;1.60;;;31.90;1.00;;;;;;6222708;23;20928;-83
2022/08/21 13:09:56;;;;;;;5.03;1.37;;;31.90;1.00;;;;;;6233844;23;20479;-85
2022/08/21 13:12:24;;;;;;;7.17;1.40;;;31.90;1.00;;;;;;6222660;23;20408;-85
2022/08/21 13:14:52;;;;;;;5.33;1.70;;;32.30;1.00;;;;;;6223265;23;20760;-85
2022/08/21 13:17:21;;;;;;;8.63;1.50;;;32.90;1.00;;;;;;6223975;23;20394;-86
2022/08/21 13:19:58;;;;;;;9.47;1.77;;;34.00;1.00;;;;;;6221209;23;20386;-84
2022/08/21 13:22:25;;;;;;;5.50;1.60;;;33.10;1.00;;;;;;6220491;23;20395;-83
2022/08/21 13:24:53;;;;;;;4.77;1.20;;;31.80;1.00;;;;;;6220174;23;20438;-84
2022/08/21 13:27:25;;;;;;;7.20;1.63;;;31.40;1.00;;;;;;6230743;23;20412;-85